createdAt,value
2023-04-08T00:01:27.278Z,8.27
2023-04-08T00:03:54.132Z,9.57
2023-04-08T00:06:20.876Z,8.90
2023-04-08T00:08:47.529Z,8.93
2023-04-08T00:11:14.113Z,8.68
2023-04-08T00:13:41.154Z,4.88
2023-04-08T00:16:08.100Z,7.90
2023-04-08T00:18:34.684Z,8.23
2023-04-08T00:21:03.739Z,7.88
2023-04-08T00:23:30.279Z,9.38
2023-04-08T00:25:56.796Z,9.38
2023-04-08T00:28:23.299Z,8.98
2023-04-08T00:30:49.911Z,8.95
2023-04-08T00:33:16.716Z,7.00
2023-04-08T00:35:43.342Z,8.23
2023-04-08T00:38:10.233Z,8.70
2023-04-08T00:40:36.808Z,9.35
2023-04-08T00:43:03.350Z,9.10
2023-04-08T00:45:29.986Z,8.02
2023-04-08T00:47:59.051Z,7.75
2023-04-08T00:50:25.900Z,4.90
2023-04-08T00:52:52.429Z,6.00
2023-04-08T00:55:18.995Z,6.00
2023-04-08T00:57:48.498Z,6.15
2023-04-08T01:03:13.587Z,7.25
2023-04-08T01:05:46.812Z,4.63
2023-04-08T01:08:14.904Z,4.93
2023-04-08T01:10:45.682Z,4.05
2023-04-08T01:13:17.652Z,6.10
2023-04-08T01:15:45.407Z,6.13
2023-04-08T01:18:13.812Z,4.18
2023-04-08T01:20:45.657Z,8.35
2023-04-08T01:23:52.105Z,8.57
2023-04-08T01:26:24.538Z,7.05
2023-04-08T01:28:55.034Z,4.22
2023-04-08T01:31:24.184Z,6.50
2023-04-08T01:33:52.039Z,7.88
2023-04-08T01:36:20.618Z,5.65
2023-04-08T01:38:49.496Z,4.97
2023-04-08T01:41:18.407Z,4.38
2023-04-08T01:43:46.295Z,5.95
2023-04-08T01:46:13.650Z,8.02
2023-04-08T01:48:40.955Z,9.15
2023-04-08T01:51:09.023Z,8.80
2023-04-08T01:53:35.915Z,6.90
2023-04-08T01:56:06.601Z,7.75
2023-04-08T01:58:39.727Z,6.47
2023-04-08T02:01:12.199Z,6.30
2023-04-08T02:03:41.521Z,4.93
2023-04-08T02:06:08.237Z,5.38
2023-04-08T02:08:36.521Z,5.78
2023-04-08T02:11:03.908Z,7.13
2023-04-08T02:13:31.639Z,6.40
2023-04-08T02:16:06.835Z,4.53
2023-04-08T02:18:36.419Z,7.07
2023-04-08T02:21:17.599Z,6.20
2023-04-08T02:23:51.391Z,6.88
2023-04-08T02:26:19.454Z,5.40
2023-04-08T02:28:49.289Z,4.63
2023-04-08T02:31:18.547Z,5.75
2023-04-08T02:33:46.082Z,6.35
2023-04-08T02:36:13.438Z,7.05
2023-04-08T02:38:40.027Z,6.55
2023-04-08T02:41:06.573Z,4.47
2023-04-08T02:43:33.064Z,4.40
2023-04-08T02:46:00.726Z,4.63
2023-04-08T02:48:27.346Z,3.85
2023-04-08T02:50:54.325Z,3.40
2023-04-08T02:53:23.262Z,4.35
2023-04-08T02:55:49.837Z,5.68
2023-04-08T02:58:16.421Z,3.65
2023-04-08T03:00:43.167Z,4.13
2023-04-08T03:03:09.794Z,5.28
2023-04-08T03:05:36.611Z,5.13
2023-04-08T03:08:03.562Z,3.83
2023-04-08T03:10:30.307Z,5.75
2023-04-08T03:12:56.819Z,5.88
2023-04-08T03:15:23.354Z,3.65
2023-04-08T03:17:49.990Z,3.97
2023-04-08T03:20:16.665Z,3.63
2023-04-08T03:22:43.185Z,4.32
2023-04-08T03:25:09.920Z,3.78
2023-04-08T03:27:36.428Z,3.78
2023-04-08T03:30:03.228Z,5.93
2023-04-08T03:32:30.021Z,5.97
2023-04-08T03:34:56.580Z,4.55
2023-04-08T03:37:23.157Z,5.25
2023-04-08T03:39:49.673Z,4.25
2023-04-08T03:42:16.580Z,3.45
2023-04-08T03:44:43.183Z,3.25
2023-04-08T03:47:09.917Z,2.13
2023-04-08T03:49:36.429Z,4.45
2023-04-08T03:52:02.990Z,4.47
2023-04-08T03:54:29.548Z,4.30
2023-04-08T03:56:56.268Z,3.25
2023-04-08T03:59:23.147Z,5.10
2023-04-08T04:01:51.371Z,2.20
2023-04-08T04:04:18.298Z,3.67
2023-04-08T04:06:45.065Z,2.90
2023-04-08T04:09:11.585Z,4.32
2023-04-08T04:11:38.096Z,4.70
2023-04-08T04:14:04.609Z,2.97
2023-04-08T04:16:33.020Z,5.28
2023-04-08T04:19:00.064Z,3.45
2023-04-08T04:21:27.255Z,4.03
2023-04-08T04:23:54.117Z,4.20
2023-04-08T04:26:21.180Z,3.45
2023-04-08T04:28:47.890Z,4.13
2023-04-08T04:31:22.566Z,3.35
2023-04-08T04:33:49.548Z,3.30
2023-04-08T04:36:16.161Z,3.92
2023-04-08T04:38:46.186Z,3.15
2023-04-08T04:41:13.476Z,3.42
2023-04-08T04:43:39.969Z,4.35
2023-04-08T04:46:09.000Z,4.20
2023-04-08T04:48:35.867Z,5.30
2023-04-08T04:51:05.235Z,2.92
2023-04-08T04:53:31.908Z,5.20
2023-04-08T04:55:58.889Z,5.15
2023-04-08T04:58:25.543Z,3.75
2023-04-08T05:00:52.160Z,3.42
2023-04-08T05:03:18.853Z,5.40
2023-04-08T05:05:45.491Z,3.50
2023-04-08T05:08:12.000Z,4.93
2023-04-08T05:10:41.263Z,4.78
2023-04-08T05:13:07.861Z,4.93
2023-04-08T05:15:34.401Z,3.60
2023-04-08T05:18:01.161Z,4.15
2023-04-08T05:20:27.852Z,3.38
2023-04-08T05:22:54.453Z,4.43
2023-04-08T05:25:21.513Z,4.00
2023-04-08T05:27:48.035Z,4.15
2023-04-08T05:30:14.742Z,3.17
2023-04-08T05:32:41.289Z,4.72
2023-04-08T05:35:09.508Z,2.42
2023-04-08T05:37:36.080Z,2.85
2023-04-08T05:40:02.879Z,4.90
2023-04-08T05:42:29.402Z,4.95
2023-04-08T05:44:55.963Z,3.88
2023-04-08T05:47:22.627Z,4.10
2023-04-08T05:49:51.101Z,4.13
2023-04-08T05:52:17.847Z,3.70
2023-04-08T05:54:44.550Z,4.85
2023-04-08T05:57:11.121Z,4.05
2023-04-08T05:59:38.041Z,5.00
2023-04-08T06:02:05.511Z,3.88
2023-04-08T06:04:32.323Z,4.72
2023-04-08T06:06:59.880Z,5.95
2023-04-08T06:09:26.708Z,5.63
2023-04-08T06:11:53.270Z,5.65
2023-04-08T06:14:20.876Z,5.43
2023-04-08T06:16:47.660Z,5.57
2023-04-08T06:19:14.269Z,5.82
2023-04-08T06:21:40.960Z,7.07
2023-04-08T06:24:07.476Z,5.95
2023-04-08T06:26:34.025Z,5.65
2023-04-08T06:29:02.945Z,4.90
2023-04-08T06:31:29.507Z,6.15
2023-04-08T06:33:56.149Z,4.70
2023-04-08T06:36:22.695Z,5.78
2023-04-08T06:38:49.530Z,6.60
2023-04-08T06:41:16.438Z,7.43
2023-04-08T06:43:42.986Z,6.53
2023-04-08T06:46:09.542Z,6.50
2023-04-08T06:48:37.778Z,6.53
2023-04-08T06:51:04.452Z,7.65
2023-04-08T06:53:32.725Z,7.43
2023-04-08T06:55:59.768Z,7.55
2023-04-08T06:58:26.327Z,8.07
2023-04-08T07:00:55.083Z,7.65
2023-04-08T07:03:21.759Z,8.23
2023-04-08T07:05:48.385Z,7.68
2023-04-08T07:08:14.920Z,7.93
2023-04-08T07:10:42.006Z,7.80
2023-04-08T07:13:08.549Z,8.38
2023-04-08T07:15:35.248Z,9.05
2023-04-08T07:18:01.879Z,9.07
2023-04-08T07:20:29.284Z,8.63
2023-04-08T07:22:57.482Z,11.35
2023-04-08T07:25:24.018Z,10.07
2023-04-08T07:27:50.586Z,10.02
2023-04-08T07:30:17.303Z,10.88
2023-04-08T07:32:43.907Z,8.57
2023-04-08T07:35:10.519Z,8.85
2023-04-08T07:37:37.247Z,9.40
2023-04-08T07:40:03.967Z,9.07
2023-04-08T07:42:30.625Z,8.55
2023-04-08T07:44:57.128Z,8.93
2023-04-08T07:47:23.663Z,9.10
2023-04-08T07:49:50.309Z,8.50
2023-04-08T07:52:16.948Z,8.27
2023-04-08T07:54:43.474Z,8.70
2023-04-08T07:57:10.004Z,7.43
2023-04-08T07:59:36.944Z,7.75
2023-04-08T08:02:03.921Z,6.95
2023-04-08T08:04:31.080Z,6.88
2023-04-08T08:06:57.757Z,6.38
2023-04-08T08:09:24.352Z,5.70
2023-04-08T08:11:50.880Z,6.18
2023-04-08T08:14:17.498Z,6.03
2023-04-08T08:16:44.652Z,5.60
2023-04-08T08:19:12.355Z,4.93
2023-04-08T08:21:39.670Z,5.35
2023-04-08T08:24:06.646Z,5.10
2023-04-08T08:26:39.448Z,5.65
2023-04-08T08:29:08.740Z,4.00
2023-04-08T08:31:35.705Z,4.70
2023-04-08T08:34:02.832Z,4.78
2023-04-08T08:36:29.436Z,5.05
2023-04-08T08:38:56.085Z,4.53
2023-04-08T08:41:22.737Z,4.68
2023-04-08T08:43:49.809Z,5.30
2023-04-08T08:46:19.352Z,5.25
2023-04-08T08:51:14.102Z,5.28
2023-04-08T08:53:45.387Z,4.78
2023-04-08T08:58:41.883Z,4.32
2023-04-08T09:01:39.146Z,4.90
2023-04-08T09:04:13.996Z,4.55
2023-04-08T09:06:41.073Z,5.00
2023-04-08T09:09:10.544Z,5.55
2023-04-08T09:11:41.647Z,5.78
2023-04-08T09:14:25.517Z,5.45
2023-04-08T09:16:52.948Z,5.55
2023-04-08T09:19:19.931Z,4.53
2023-04-08T09:21:47.681Z,5.38
2023-04-08T09:24:30.384Z,5.65
2023-04-08T09:26:57.162Z,5.63
2023-04-08T09:29:26.328Z,5.38
2023-04-08T09:31:56.184Z,5.45
2023-04-08T09:34:23.748Z,5.22
2023-04-08T09:36:51.517Z,5.60
2023-04-08T09:39:18.570Z,5.63
2023-04-08T09:41:48.985Z,7.00
2023-04-08T09:44:19.404Z,5.47
2023-04-08T09:47:18.657Z,6.00
2023-04-08T09:49:50.091Z,5.60
2023-04-08T09:52:24.299Z,5.80
2023-04-08T09:55:04.574Z,5.63
2023-04-08T09:57:46.678Z,5.22
2023-04-08T10:00:15.067Z,5.38
2023-04-08T10:03:10.568Z,5.60
2023-04-08T10:05:40.717Z,5.30
2023-04-08T10:08:07.839Z,5.53
2023-04-08T10:10:40.762Z,5.90
2023-04-08T10:13:08.036Z,5.25
2023-04-08T10:15:36.884Z,6.60
2023-04-08T10:18:04.532Z,6.03
2023-04-08T10:20:36.905Z,6.80
2023-04-08T10:23:07.750Z,7.07
2023-04-08T10:25:36.040Z,6.32
2023-04-08T10:28:23.035Z,6.70
2023-04-08T10:30:51.034Z,6.22
2023-04-08T10:33:22.707Z,5.70
2023-04-08T10:35:54.629Z,5.72
2023-04-08T10:38:22.201Z,5.93
2023-04-08T10:40:49.566Z,6.25
2023-04-08T10:43:16.303Z,5.97
2023-04-08T10:45:45.836Z,5.50
2023-04-08T10:48:13.736Z,5.45
2023-04-08T10:50:40.982Z,4.38
2023-04-08T10:53:08.584Z,5.18
2023-04-08T10:55:35.311Z,5.30
2023-04-08T10:58:09.667Z,5.53
2023-04-08T11:00:38.845Z,4.50
2023-04-08T11:03:13.717Z,5.07
2023-04-08T11:05:41.651Z,5.07
2023-04-08T11:08:08.352Z,6.47
2023-04-08T11:10:39.001Z,7.07
2023-04-08T11:13:10.024Z,9.15
2023-04-08T11:15:37.329Z,6.78
2023-04-08T11:18:05.540Z,5.15
2023-04-08T11:20:37.128Z,5.60
2023-04-08T11:23:03.803Z,6.38
2023-04-08T11:25:30.554Z,6.82
2023-04-08T11:27:57.320Z,6.80
2023-04-08T11:30:24.408Z,7.07
2023-04-08T11:32:52.318Z,7.65
2023-04-08T11:35:19.086Z,7.47
2023-04-08T11:37:47.658Z,7.50
2023-04-08T11:40:20.709Z,8.20
2023-04-08T11:42:47.365Z,8.50
2023-04-08T11:45:16.474Z,9.48
2023-04-08T11:47:44.517Z,8.90
2023-04-08T11:50:11.408Z,7.22
2023-04-08T11:52:57.038Z,10.88
2023-04-08T11:55:31.568Z,10.20
2023-04-08T11:58:04.325Z,10.50
2023-04-08T12:00:31.241Z,9.38
2023-04-08T12:02:57.934Z,8.48
2023-04-08T12:05:24.577Z,8.25
2023-04-08T12:07:51.156Z,8.85
2023-04-08T12:10:17.681Z,9.32
2023-04-08T12:12:44.215Z,9.82
2023-04-08T12:15:11.377Z,10.23
2023-04-08T12:17:39.035Z,10.88
2023-04-08T12:20:06.642Z,10.90
2023-04-08T12:22:33.458Z,10.40
2023-04-08T12:24:59.980Z,11.88
2023-04-08T12:27:26.563Z,9.85
2023-04-08T12:29:53.528Z,10.90
2023-04-08T12:32:20.470Z,12.02
2023-04-08T12:34:47.316Z,11.07
2023-04-08T12:37:13.899Z,9.75
2023-04-08T12:39:40.413Z,11.77
2023-04-08T12:42:07.197Z,11.57
2023-04-08T12:44:33.784Z,12.20
2023-04-08T12:47:00.446Z,11.90
2023-04-08T12:49:28.005Z,12.68
2023-04-08T12:51:55.082Z,11.73
2023-04-08T12:54:21.801Z,12.23
2023-04-08T12:56:48.910Z,11.82
2023-04-08T12:59:15.449Z,10.85
2023-04-08T13:01:42.323Z,12.10
2023-04-08T13:04:08.924Z,10.82
2023-04-08T13:06:35.521Z,11.57
2023-04-08T13:09:02.039Z,11.13
2023-04-08T13:11:28.693Z,11.75
2023-04-08T13:13:55.340Z,9.70
2023-04-08T13:16:22.081Z,11.13
2023-04-08T13:18:48.920Z,10.63
2023-04-08T13:21:15.600Z,10.07
2023-04-08T13:23:42.370Z,10.60
2023-04-08T13:26:08.932Z,8.63
2023-04-08T13:28:53.849Z,10.65
2023-04-08T13:31:22.248Z,9.07
2023-04-08T13:33:48.812Z,9.75
2023-04-08T13:36:15.508Z,9.45
2023-04-08T13:38:42.089Z,8.30
2023-04-08T13:41:08.623Z,9.70
2023-04-08T13:43:35.963Z,10.60
2023-04-08T13:46:02.889Z,12.45
2023-04-08T13:48:29.450Z,10.32
2023-04-08T13:50:56.066Z,10.13
2023-04-08T13:53:22.644Z,9.48
2023-04-08T13:55:54.911Z,10.30
2023-04-08T13:58:24.120Z,9.50
2023-04-08T14:03:18.951Z,8.63
2023-04-08T14:05:45.877Z,9.25
2023-04-08T14:08:13.610Z,8.23
2023-04-08T14:10:41.946Z,5.78
2023-04-08T14:13:09.161Z,8.77
2023-04-08T14:15:36.193Z,9.27
2023-04-08T14:18:02.958Z,7.40
2023-04-08T14:20:30.032Z,9.18
2023-04-08T14:22:56.770Z,8.88
2023-04-08T14:25:24.195Z,5.40
2023-04-08T14:27:57.417Z,8.90
2023-04-08T14:30:25.429Z,8.50
2023-04-08T14:32:52.014Z,9.38
2023-04-08T14:35:18.768Z,9.88
2023-04-08T14:37:45.366Z,9.35
2023-04-08T14:40:12.184Z,6.32
2023-04-08T14:42:39.149Z,9.90
2023-04-08T14:45:06.170Z,7.85
2023-04-08T14:47:32.753Z,7.70
2023-04-08T14:49:59.329Z,10.25
2023-04-08T14:52:25.924Z,7.32
2023-04-08T14:54:53.726Z,7.85
2023-04-08T14:57:20.373Z,7.10
2023-04-08T14:59:46.918Z,8.00
2023-04-08T15:02:13.876Z,6.97
2023-04-08T15:04:40.967Z,6.50
2023-04-08T15:07:07.582Z,8.00
2023-04-08T15:09:34.193Z,7.88
2023-04-08T15:12:01.212Z,7.93
2023-04-08T15:14:27.822Z,6.43
2023-04-08T15:16:54.365Z,8.32
2023-04-08T15:19:21.082Z,7.20
2023-04-08T15:21:47.591Z,6.30
2023-04-08T15:24:14.201Z,7.80
2023-04-08T15:26:41.088Z,6.47
2023-04-08T15:29:07.850Z,6.93
2023-04-08T15:31:35.265Z,6.85
2023-04-08T15:34:03.633Z,7.30
2023-04-08T15:36:30.611Z,7.70
2023-04-08T15:38:57.215Z,7.43
2023-04-08T15:41:23.799Z,7.20
2023-04-08T15:43:52.023Z,7.40
2023-04-08T15:46:19.796Z,7.22
2023-04-08T15:48:47.716Z,6.80
2023-04-08T15:51:14.362Z,7.20
2023-04-08T15:53:41.686Z,7.93
2023-04-08T15:56:16.365Z,8.38
2023-04-08T15:58:44.214Z,8.27
2023-04-08T16:01:11.237Z,8.10
2023-04-08T16:03:38.472Z,10.25
2023-04-08T16:06:06.183Z,11.02
2023-04-08T16:08:34.787Z,9.93
2023-04-08T16:11:03.140Z,8.55
2023-04-08T16:13:30.242Z,9.63
2023-04-08T16:16:03.105Z,10.63
2023-04-08T16:18:30.224Z,9.85
2023-04-08T16:20:57.183Z,10.68
2023-04-08T16:23:23.933Z,10.65
2023-04-08T16:25:50.618Z,9.75
2023-04-08T16:28:18.107Z,9.85
2023-04-08T16:30:44.742Z,9.75
2023-04-08T16:33:11.345Z,9.55
2023-04-08T16:35:38.132Z,10.40
2023-04-08T16:38:04.720Z,8.05
2023-04-08T16:40:33.206Z,9.30
2023-04-08T16:43:01.145Z,9.85
2023-04-08T16:45:32.421Z,9.52
2023-04-08T16:48:00.487Z,9.05
2023-04-08T16:50:28.371Z,8.15
2023-04-08T16:52:55.321Z,7.72
2023-04-08T16:55:21.891Z,8.90
2023-04-08T16:57:48.532Z,8.70
2023-04-08T17:00:16.865Z,9.52
2023-04-08T17:02:44.745Z,9.30
2023-04-08T17:05:11.479Z,10.50
2023-04-08T17:07:37.980Z,9.52
2023-04-08T17:10:04.967Z,9.88
2023-04-08T17:12:32.104Z,10.20
2023-04-08T17:14:58.607Z,9.43
2023-04-08T17:17:25.290Z,9.40
2023-04-08T17:19:51.958Z,9.35
2023-04-08T17:22:18.482Z,9.00
2023-04-08T17:24:47.852Z,10.23
2023-04-08T17:27:14.672Z,9.65
2023-04-08T17:29:41.479Z,9.65
2023-04-08T17:32:08.308Z,9.48
2023-04-08T17:34:35.079Z,10.02
2023-04-08T17:37:01.640Z,9.20
2023-04-08T17:39:28.154Z,9.60
2023-04-08T17:41:54.686Z,9.95
2023-04-08T17:44:21.768Z,8.68
2023-04-08T17:46:48.321Z,10.00
2023-04-08T17:49:14.858Z,11.48
2023-04-08T17:51:41.428Z,10.38
2023-04-08T17:54:08.125Z,9.73
2023-04-08T17:56:34.661Z,10.70
2023-04-08T17:59:01.826Z,9.60
2023-04-08T18:01:31.409Z,9.68
2023-04-08T18:03:58.168Z,9.82
2023-04-08T18:06:24.740Z,10.95
2023-04-08T18:08:51.286Z,10.13
2023-04-08T18:11:17.881Z,9.57
2023-04-08T18:13:46.000Z,9.13
2023-04-08T18:16:20.363Z,10.95
2023-04-08T18:18:47.988Z,11.05
2023-04-08T18:21:15.459Z,10.75
2023-04-08T18:23:44.975Z,9.70
2023-04-08T18:26:13.397Z,9.95
2023-04-08T18:28:39.961Z,10.45
2023-04-08T18:31:06.781Z,9.43
2023-04-08T18:33:33.522Z,10.70
2023-04-08T18:36:18.494Z,9.65
2023-04-08T18:38:45.091Z,11.02
2023-04-08T18:41:13.225Z,10.02
2023-04-08T18:43:39.892Z,9.80
2023-04-08T18:46:06.549Z,8.38
2023-04-08T18:48:33.648Z,8.95
2023-04-08T18:51:01.771Z,9.07
2023-04-08T18:53:28.713Z,10.15
2023-04-08T18:55:56.105Z,9.57
2023-04-08T18:58:22.840Z,9.80
2023-04-08T19:00:49.340Z,9.73
2023-04-08T19:03:15.854Z,10.32
2023-04-08T19:05:42.453Z,10.48
2023-04-08T19:08:08.999Z,10.52
2023-04-08T19:10:35.620Z,11.20
2023-04-08T19:13:04.130Z,9.90
2023-04-08T19:15:31.055Z,10.60
2023-04-08T19:17:59.045Z,10.85
2023-04-08T19:20:27.190Z,10.73
2023-04-08T19:22:53.719Z,11.40
2023-04-08T19:25:20.521Z,10.40
2023-04-08T19:27:47.704Z,10.73
2023-04-08T19:30:14.441Z,10.70
2023-04-08T19:32:41.100Z,10.02
2023-04-08T19:35:11.191Z,10.40
2023-04-08T19:37:37.760Z,11.07
2023-04-08T19:40:04.698Z,10.52
2023-04-08T19:42:31.220Z,10.95
2023-04-08T19:44:57.754Z,10.82
2023-04-08T19:47:24.315Z,11.23
2023-04-08T19:49:51.082Z,10.88
2023-04-08T19:52:17.596Z,10.70
2023-04-08T19:54:44.230Z,11.32
2023-04-08T19:57:10.914Z,11.18
2023-04-08T19:59:38.115Z,11.90
2023-04-08T20:02:05.051Z,12.10
2023-04-08T20:04:32.043Z,11.60
2023-04-08T20:07:06.071Z,12.15
2023-04-08T20:09:32.657Z,11.55
2023-04-08T20:12:04.514Z,11.35
2023-04-08T20:14:32.418Z,11.13
2023-04-08T20:16:59.180Z,11.02
2023-04-08T20:19:26.303Z,11.50
2023-04-08T20:21:56.195Z,12.65
2023-04-08T20:24:23.102Z,11.80
2023-04-08T20:26:49.871Z,12.40
2023-04-08T20:29:16.632Z,12.05
2023-04-08T20:31:44.685Z,12.15
2023-04-08T20:34:11.493Z,11.98
2023-04-08T20:36:38.560Z,13.05
2023-04-08T20:39:11.780Z,12.20
2023-04-08T20:41:38.698Z,11.95
2023-04-08T20:44:06.956Z,12.00
2023-04-08T20:46:35.006Z,12.13
2023-04-08T20:49:03.596Z,12.90
2023-04-08T20:51:31.199Z,12.63
2023-04-08T20:53:58.311Z,11.95
2023-04-08T20:56:26.421Z,12.05
2023-04-08T20:58:58.228Z,11.73
2023-04-08T21:01:26.408Z,11.38
2023-04-08T21:03:53.104Z,12.25
2023-04-08T21:06:20.260Z,12.38
2023-04-08T21:08:47.660Z,12.45
2023-04-08T21:11:15.520Z,12.48
2023-04-08T21:13:42.393Z,13.05
2023-04-08T21:16:09.258Z,13.60
2023-04-08T21:18:38.718Z,14.00
2023-04-08T21:21:05.868Z,14.10
2023-04-08T21:23:32.419Z,13.38
2023-04-08T21:25:59.396Z,12.52
2023-04-08T21:28:27.136Z,12.52
2023-04-08T21:30:54.867Z,12.68
2023-04-08T21:33:21.472Z,12.52
2023-04-08T21:35:48.005Z,13.05
2023-04-08T21:38:15.575Z,14.63
2023-04-08T21:40:42.628Z,13.57
2023-04-08T21:43:09.178Z,13.55
2023-04-08T21:45:35.798Z,12.55
2023-04-08T21:48:02.381Z,14.20
2023-04-08T21:50:28.999Z,13.45
2023-04-08T21:52:55.501Z,12.95
2023-04-08T21:55:22.147Z,14.32
2023-04-08T21:57:48.980Z,13.73
2023-04-08T22:00:15.584Z,15.35
2023-04-08T22:02:42.612Z,14.68
2023-04-08T22:05:09.890Z,14.80
2023-04-08T22:07:36.457Z,13.50
2023-04-08T22:10:03.137Z,15.30
2023-04-08T22:12:30.723Z,14.63
2023-04-08T22:14:57.827Z,15.48
2023-04-08T22:17:24.432Z,14.07
2023-04-08T22:19:51.062Z,14.05
2023-04-08T22:22:17.826Z,15.45
2023-04-08T22:24:44.478Z,14.80
2023-04-08T22:27:11.170Z,15.30
2023-04-08T22:29:37.717Z,14.90
2023-04-08T22:32:04.288Z,14.82
2023-04-08T22:34:30.820Z,15.18
2023-04-08T22:36:57.377Z,14.60
2023-04-08T22:39:26.110Z,14.55
2023-04-08T22:41:52.671Z,16.15
2023-04-08T22:44:19.213Z,16.42
2023-04-08T22:46:45.984Z,19.23
2023-04-08T22:49:12.486Z,18.95
2023-04-08T22:51:39.067Z,24.13
2023-04-08T22:54:05.678Z,20.83
2023-04-08T22:56:32.199Z,21.30
2023-04-08T22:58:58.736Z,20.13
2023-04-08T23:01:25.385Z,21.08
2023-04-08T23:03:51.934Z,21.05
2023-04-08T23:06:18.532Z,21.80
2023-04-08T23:08:45.244Z,22.17
2023-04-08T23:11:12.047Z,22.50
2023-04-08T23:13:38.584Z,20.75
2023-04-08T23:16:05.523Z,20.33
2023-04-08T23:18:39.437Z,20.70
2023-04-08T23:21:06.885Z,22.50
2023-04-08T23:23:33.421Z,22.65
2023-04-08T23:25:59.938Z,21.00
2023-04-08T23:28:26.483Z,18.38
2023-04-08T23:30:53.048Z,16.88
2023-04-08T23:33:22.356Z,17.77
2023-04-08T23:35:48.919Z,18.02
2023-04-08T23:38:15.618Z,18.95
2023-04-08T23:40:42.209Z,18.13
2023-04-08T23:43:08.780Z,17.83
2023-04-08T23:45:35.288Z,18.98
2023-04-08T23:48:01.936Z,18.63
2023-04-08T23:50:28.535Z,18.08
2023-04-08T23:52:55.259Z,18.83
2023-04-08T23:55:21.772Z,18.35
2023-04-08T23:57:50.614Z,19.15
